Midnight Sun — CFG7615 — position and weather

sailwx.info

Track history (hours):
 
Tides and Currents Weather Stations Pressure Air Temp Water Temp Dewpoint Dewpoint Depression Visibility Wind Speed Wind Dir Waves Ship Positions

Midnight Sun

Last reported at 2018-Jul-15 17:38 UTC. Time now 2018-Jul-16 04:45 UTC.
Position N 49°18' W 123°08'.

Length 25 m.

Type: Pleasure craft. MMSI: 316001152.

Date/timePositionNaut miles runAvg speedWind from/ knotsBaromVisibWave heightAir tempDewpointWater temp
2018-Jul-15 17:38N 49°18' W 123°08'0 0.0
2018-Jul-15 17:29N 49°18' W 123°08'0 0.0
2018-Jul-15 16:05N 49°18' W 123°08'0 0.0
2018-Jul-15 15:56N 49°18' W 123°08'0 0.0
2018-Jul-15 13:44N 49°18' W 123°08'0 0.0
2018-Jul-15 09:47N 49°18' W 123°08'0 0.0
2018-Jul-15 09:29N 49°18' W 123°08'0 0.0
2018-Jul-15 08:53N 49°18' W 123°08'0 0.0
2018-Jul-15 08:28N 49°18' W 123°08'0 0.0
2018-Jul-15 05:01N 49°18' W 123°08'0 0.0
2018-Jul-15 04:37N 49°18' W 123°08'0 0.0
2018-Jul-15 04:10N 49°18' W 123°08'1 3.4
2018-Jul-15 03:59N 49°18' W 123°07'4 7.4
2018-Jul-15 03:28N 49°18' W 123°01'1 3.0
2018-Jul-15 03:00N 49°18' W 122°59'4 7.5
2018-Jul-15 02:29N 49°20' W 122°54'2 3.4
2018-Jul-15 01:59N 49°22' W 122°53'4 8.9
2018-Jul-15 01:30N 49°18' W 122°57'3 6.0
2018-Jul-15 00:56N 49°18' W 123°02'3 6.7
2018-Jul-15 00:30N 49°18' W 123°06'1 0.2
2018-Jul-14 19:05N 49°18' W 123°08'0 5.3
2018-Jul-14 19:00N 49°18' W 123°07'14 5.2
2018-Jul-14 16:19N 49°06' W 123°20'3 9.7
2018-Jul-14 16:00N 49°07' W 123°15'611.3
2018-Jul-14 15:30N 49°07' W 123°07'510.3
2018-Jul-14 15:00N 49°09' W 123°00'2 3.2
2018-Jul-14 14:30N 49°10' W 122°58'0 0.0
2018-Jul-14 13:30N 49°10' W 122°58'0 0.1
2018-Jul-14 13:00N 49°10' W 122°58'0 0.1
2018-Jul-14 12:30N 49°10' W 122°58'0 0.0
2018-Jul-14 12:00N 49°10' W 122°58'0 0.1
2018-Jul-14 11:30N 49°10' W 122°58'0 0.0
2018-Jul-14 11:00N 49°10' W 122°58'0 0.0
2018-Jul-14 10:30N 49°10' W 122°58'0 0.0
2018-Jul-14 10:00N 49°10' W 122°58'0 0.0
2018-Jul-14 09:27N 49°10' W 122°58'0 0.0
2018-Jul-14 09:00N 49°10' W 122°58'0 0.0
2018-Jul-14 08:30N 49°10' W 122°58'0 0.0
2018-Jul-14 08:00N 49°10' W 122°58'0 0.0
2018-Jul-14 07:30N 49°10' W 122°58'0 0.0
2018-Jul-14 07:00N 49°10' W 122°58'0 0.0
2018-Jul-14 06:30N 49°10' W 122°58'0 0.0
2018-Jul-14 06:00N 49°10' W 122°58'0 0.0
2018-Jul-14 05:30N 49°10' W 122°58'0 0.0
2018-Jul-14 05:00N 49°10' W 122°58'0 0.0
2018-Jul-14 04:30N 49°10' W 122°58'0 0.1
2018-Jul-14 04:00N 49°10' W 122°58'0 0.1
2018-Jul-14 03:27N 49°10' W 122°58'0 0.0
2018-Jul-14 02:57N 49°10' W 122°58'0 0.0
2018-Jul-14 02:27N 49°10' W 122°58'0 0.0
2018-Jul-14 02:00N 49°10' W 122°58'0 0.1
2018-Jul-14 01:30N 49°10' W 122°58'0 0.1
2018-Jul-14 01:00N 49°10' W 122°58'0 0.1
2018-Jul-14 00:30N 49°10' W 122°58'0 0.1
2018-Jul-14 00:00N 49°10' W 122°58'0 0.1
2018-Jul-13 23:30N 49°10' W 122°58'0 0.1
2018-Jul-13 23:00N 49°10' W 122°58'0 0.0
2018-Jul-13 22:30N 49°10' W 122°58'0 0.0
2018-Jul-13 22:00N 49°10' W 122°58'0 0.0
2018-Jul-13 21:30N 49°10' W 122°58'0 0.0
2018-Jul-13 21:00N 49°10' W 122°58'0 0.0
2018-Jul-13 20:30N 49°10' W 122°58'0 0.0
2018-Jul-13 20:00N 49°10' W 122°58'0 0.0
2018-Jul-13 19:29N 49°10' W 122°58'0 0.0
2018-Jul-13 18:59N 49°10' W 122°58'0 0.1
2018-Jul-13 18:29N 49°10' W 122°58'0 0.0
2018-Jul-13 17:59N 49°10' W 122°58'0 0.0
2018-Jul-13 17:29N 49°10' W 122°58'0 0.1
2018-Jul-13 16:59N 49°10' W 122°58'0 0.0
2018-Jul-13 16:29N 49°10' W 122°58'0 0.0
2018-Jul-13 15:59N 49°10' W 122°58'0 0.1
2018-Jul-13 15:29N 49°10' W 122°58'0 0.1
2018-Jul-13 14:59N 49°10' W 122°58'0 0.1
2018-Jul-13 14:29N 49°10' W 122°58'0 0.0
2018-Jul-13 13:29N 49°10' W 122°58'0 0.0
2018-Jul-13 12:59N 49°10' W 122°58'0 0.0
2018-Jul-13 12:29N 49°10' W 122°58'0 0.0
2018-Jul-13 11:59N 49°10' W 122°58'0 0.0
2018-Jul-13 11:29N 49°10' W 122°58'0 0.0
2018-Jul-13 10:53N 49°10' W 122°58'0 0.0
2018-Jul-13 10:29N 49°10' W 122°58'0 0.1
2018-Jul-13 09:59N 49°10' W 122°58'0 0.1
2018-Jul-13 09:29N 49°10' W 122°58'0 0.1
2018-Jul-13 08:59N 49°10' W 122°58'0 0.1
2018-Jul-13 08:29N 49°10' W 122°58'0 0.0
2018-Jul-13 07:59N 49°10' W 122°58'0 0.0
2018-Jul-13 07:29N 49°10' W 122°58'0 0.0
2018-Jul-13 06:59N 49°10' W 122°58'0 0.0
2018-Jul-13 06:29N 49°10' W 122°58'0 0.1
2018-Jul-13 05:59N 49°10' W 122°58'0 0.1
2018-Jul-13 05:29N 49°10' W 122°58'0 0.0
2018-Jul-12 11:29N 49°10' W 122°58'0 0.0
2018-Jul-12 10:59N 49°10' W 122°58'0 0.1
2018-Jul-12 10:26N 49°10' W 122°58'0 0.1
2018-Jul-12 09:59N 49°10' W 122°58'0 0.0
2018-Jul-12 09:29N 49°10' W 122°58'0 0.0
2018-Jul-12 08:59N 49°10' W 122°58'0 0.0
2018-Jul-12 08:29N 49°10' W 122°58'0 0.0
2018-Jul-12 07:59N 49°10' W 122°58'0 0.1
2018-Jul-12 07:29N 49°10' W 122°58'0 0.1
2018-Jul-12 06:59N 49°10' W 122°58'0 0.0
2018-Jul-12 06:29N 49°10' W 122°58'0 0.0
2018-Jul-12 05:59N 49°10' W 122°58'0 0.0
2018-Jul-12 05:26N 49°10' W 122°58'0 0.1
2018-Jul-12 04:59N 49°10' W 122°58'0 0.1
2018-Jul-12 04:29N 49°10' W 122°58'0 0.1
2018-Jul-12 03:56N 49°10' W 122°58'0 0.1
2018-Jul-12 03:29N 49°10' W 122°58'0 0.1
2018-Jul-12 02:59N 49°10' W 122°58'0 0.1
2018-Jul-12 02:29N 49°10' W 122°58'0 0.0
2018-Jul-12 01:59N 49°10' W 122°58'0 0.0
2018-Jul-12 01:26N 49°10' W 122°58'0 0.1
2018-Jul-12 00:59N 49°10' W 122°58'0 0.1
2018-Jul-12 00:29N 49°10' W 122°58'0 0.0
2018-Jul-11 23:59N 49°10' W 122°58'0 0.1
2018-Jul-11 23:29N 49°10' W 122°58'0 0.1
2018-Jul-11 22:59N 49°10' W 122°58'0 0.0
2018-Jul-11 22:29N 49°10' W 122°58'0 0.0
2018-Jul-11 21:59N 49°10' W 122°58'0 0.0
2018-Jul-11 21:29N 49°10' W 122°58'0 0.0
2018-Jul-11 20:59N 49°10' W 122°58'0 0.0
2018-Jul-11 20:29N 49°10' W 122°58'0 0.0
2018-Jul-11 19:59N 49°10' W 122°58'0 0.0
2018-Jul-11 19:26N 49°10' W 122°58'0 0.0
2018-Jul-11 18:59N 49°10' W 122°58'0 0.0
2018-Jul-11 18:29N 49°10' W 122°58'0 0.0
2018-Jul-11 17:59N 49°10' W 122°58'0 0.0
2018-Jul-11 17:23N 49°10' W 122°58'0 0.0
2018-Jul-11 16:59N 49°10' W 122°58'0 0.0
2018-Jul-11 16:29N 49°10' W 122°58'0 0.0
2018-Jul-11 15:59N 49°10' W 122°58'0 0.1
2018-Jul-11 15:29N 49°10' W 122°58'0 0.1
2018-Jul-11 14:59N 49°10' W 122°58'0 0.0
2018-Jul-11 14:29N 49°10' W 122°58'0 0.0
2018-Jul-11 13:59N 49°10' W 122°58'0 0.1
2018-Jul-11 13:29N 49°10' W 122°58'0 0.1
2018-Jul-11 12:59N 49°10' W 122°58'0 0.0
2018-Jul-11 12:29N 49°10' W 122°58'0 0.0
2018-Jul-11 11:59N 49°10' W 122°58'0 0.0
2018-Jul-11 11:29N 49°10' W 122°58'0 0.1
2018-Jul-11 10:59N 49°10' W 122°58'0 0.1
2018-Jul-11 10:29N 49°10' W 122°58'0 0.0
2018-Jul-11 09:59N 49°10' W 122°58'0 0.0
2018-Jul-11 09:29N 49°10' W 122°58'0 0.1
2018-Jul-11 08:59N 49°10' W 122°58'0 0.0
2018-Jul-11 08:26N 49°10' W 122°58'0 0.1
2018-Jul-11 07:56N 49°10' W 122°58'0 0.0
2018-Jul-11 07:29N 49°10' W 122°58'0 0.1
2018-Jul-11 06:59N 49°10' W 122°58'0 0.1
2018-Jul-11 06:29N 49°10' W 122°58'0 0.0
2018-Jul-11 05:59N 49°10' W 122°58'0 0.1
2018-Jul-11 05:29N 49°10' W 122°58'0 0.1
2018-Jul-11 04:59N 49°10' W 122°58'0 0.0
2018-Jul-11 04:29N 49°10' W 122°58'0 0.1
2018-Jul-11 03:59N 49°10' W 122°58'0 0.1
2018-Jul-11 03:29N 49°10' W 122°58'0 0.1
2018-Jul-11 02:59N 49°10' W 122°58'0 0.1
2018-Jul-11 02:29N 49°10' W 122°58'0 0.0
2018-Jul-11 01:59N 49°10' W 122°58'0 0.1
2018-Jul-11 01:29N 49°10' W 122°58'0 0.0
2018-Jul-11 00:59N 49°10' W 122°58'0 0.1
2018-Jul-11 00:29N 49°10' W 122°58'0 0.0
2018-Jul-10 23:59N 49°10' W 122°58'0 0.0
2018-Jul-10 23:29N 49°10' W 122°58'0 0.1
2018-Jul-10 22:59N 49°10' W 122°58'0 0.1
2018-Jul-10 22:30N 49°10' W 122°58'0 0.0
2018-Jul-10 21:58N 49°10' W 122°58'0 0.0
2018-Jul-10 21:28N 49°10' W 122°58'0 0.0
2018-Jul-10 20:58N 49°10' W 122°58'0 0.0
2018-Jul-10 20:28N 49°10' W 122°58'0 0.0
2018-Jul-10 19:58N 49°10' W 122°58'0 0.0
2018-Jul-10 19:28N 49°10' W 122°58'0 0.1
2018-Jul-10 18:55N 49°10' W 122°58'0 0.1
2018-Jul-10 18:28N 49°10' W 122°58'0 0.0
2018-Jul-10 17:58N 49°10' W 122°58'0 0.0
2018-Jul-10 17:28N 49°10' W 122°58'0 0.0
2018-Jul-10 16:58N 49°10' W 122°58'0 0.0
2018-Jul-10 16:28N 49°10' W 122°58'0 0.1
2018-Jul-10 15:58N 49°10' W 122°58'0 0.1
2018-Jul-10 15:28N 49°10' W 122°58'0 0.1
2018-Jul-10 14:58N 49°10' W 122°58'0 0.1
2018-Jul-10 14:28N 49°10' W 122°58'0 0.0
2018-Jul-10 13:58N 49°10' W 122°58'0 0.0
2018-Jul-10 13:28N 49°10' W 122°58'0 0.0
2018-Jul-10 12:58N 49°10' W 122°58'0 0.0
2018-Jul-10 12:28N 49°10' W 122°58'0 0.0
2018-Jul-10 11:58N 49°10' W 122°58'0 0.0
2018-Jul-10 11:28N 49°10' W 122°58'0 0.0
2018-Jul-10 10:58N 49°10' W 122°58'0 0.0
2018-Jul-10 10:28N 49°10' W 122°58'0 0.0
2018-Jul-10 09:58N 49°10' W 122°58'0 0.0
2018-Jul-10 09:28N 49°10' W 122°58'0 0.1
2018-Jul-10 08:58N 49°10' W 122°58'0 0.1
2018-Jul-10 08:28N 49°10' W 122°58'0 0.1
2018-Jul-10 07:58N 49°10' W 122°58'0 0.1
2018-Jul-10 07:28N 49°10' W 122°58'0 0.0
2018-Jul-10 06:58N 49°10' W 122°58'0 0.0
2018-Jul-10 06:28N 49°10' W 122°58'0 0.1
2018-Jul-10 05:58N 49°10' W 122°58'0 0.1
2018-Jul-10 05:28N 49°10' W 122°58'0 0.0
2018-Jul-10 04:58N 49°10' W 122°58'0 0.0
2018-Jul-10 04:28N 49°10' W 122°58'0 0.0
2018-Jul-10 03:58N 49°10' W 122°58'0 0.1
2018-Jul-10 03:28N 49°10' W 122°58'0 0.0
2018-Jul-10 02:58N 49°10' W 122°58'0 0.1
2018-Jul-10 02:28N 49°10' W 122°58'0 0.0
2018-Jul-10 01:58N 49°10' W 122°58'0 0.0
2018-Jul-10 01:28N 49°10' W 122°58'0 0.0
2018-Jul-10 00:58N 49°10' W 122°58'0 0.0
2018-Jul-10 00:28N 49°10' W 122°58'0 0.1
2018-Jul-09 23:58N 49°10' W 122°58'0 0.1
2018-Jul-09 23:28N 49°10' W 122°58'0 0.1
2018-Jul-09 22:58N 49°10' W 122°58'0 0.1
2018-Jul-09 22:28N 49°10' W 122°58'0 0.0
2018-Jul-09 21:58N 49°10' W 122°58'0 0.0
2018-Jul-09 21:28N 49°10' W 122°58'0 0.0
2018-Jul-09 20:58N 49°10' W 122°58'0 0.1
2018-Jul-09 20:28N 49°10' W 122°58'0 0.1
2018-Jul-09 19:58N 49°10' W 122°58'0 0.1
2018-Jul-09 19:28N 49°10' W 122°58'0 0.1
2018-Jul-09 18:58N 49°10' W 122°58'0 0.1
2018-Jul-09 18:28N 49°10' W 122°58'0 0.0
2018-Jul-09 14:49N 49°10' W 122°58'0 0.1
2018-Jul-09 14:28N 49°10' W 122°58'0 0.1
2018-Jul-09 13:58N 49°10' W 122°58'0 0.0
2018-Jul-09 13:28N 49°10' W 122°58'0 0.1
2018-Jul-09 12:58N 49°10' W 122°58'0 0.1
2018-Jul-09 12:28N 49°10' W 122°58'0 0.0
2018-Jul-09 11:58N 49°10' W 122°58'0 0.0
2018-Jul-09 11:25N 49°10' W 122°58'0 0.1
2018-Jul-09 10:58N 49°10' W 122°58'0 0.1
2018-Jul-09 10:28N 49°10' W 122°58'0 0.0
2018-Jul-09 09:55N 49°10' W 122°58'0 0.0
2018-Jul-09 09:28N 49°10' W 122°58'0 0.1
2018-Jul-09 08:55N 49°10' W 122°58'0 0.1
2018-Jul-09 08:28N 49°10' W 122°58'0 0.1
2018-Jul-09 07:58N 49°10' W 122°58'0 0.1
2018-Jul-09 07:28N 49°10' W 122°58'0 0.0
2018-Jul-09 06:55N 49°10' W 122°58'0 0.0
2018-Jul-09 06:28N 49°10' W 122°58'0 0.1
2018-Jul-09 05:58N 49°10' W 122°58'0 0.1
2018-Jul-09 05:28N 49°10' W 122°58'0 0.0
2018-Jul-09 04:58N 49°10' W 122°58'0 0.0
2018-Jul-09 04:28N 49°10' W 122°58'0 0.1
2018-Jul-09 03:58N 49°10' W 122°58'0 0.1
2018-Jul-09 03:28N 49°10' W 122°58'0 0.1
2018-Jul-09 02:58N 49°10' W 122°58'0 0.1
2018-Jul-09 02:28N 49°10' W 122°58'0 0.0
2018-Jul-09 01:58N 49°10' W 122°58'0 0.1
2018-Jul-09 01:29N 49°10' W 122°58'0 0.1
2018-Jul-09 00:59N 49°10' W 122°58'0 0.1
2018-Jul-09 00:29N 49°10' W 122°58'0 0.0
2018-Jul-08 23:59N 49°10' W 122°58'0 0.1
2018-Jul-08 23:29N 49°10' W 122°58'0 0.0
2018-Jul-08 22:59N 49°10' W 122°58'0 0.0
2018-Jul-08 22:29N 49°10' W 122°58'0 0.0
2018-Jul-08 21:53N 49°10' W 122°58'0 0.0
2018-Jul-08 21:29N 49°10' W 122°58'0 0.0
2018-Jul-08 20:59N 49°10' W 122°58'0 0.1
2018-Jul-08 20:29N 49°10' W 122°58'0 0.1
2018-Jul-08 19:59N 49°10' W 122°58'0 0.0
2018-Jul-08 19:29N 49°10' W 122°58'0 0.1
2018-Jul-08 18:59N 49°10' W 122°58'0 0.1
2018-Jul-08 18:29N 49°10' W 122°58'0 0.1
2018-Jul-08 17:59N 49°10' W 122°58'0 0.1
2018-Jul-08 17:23N 49°10' W 122°58'0 0.0
2018-Jul-08 16:59N 49°10' W 122°58'0 0.0
2018-Jul-08 16:29N 49°10' W 122°58'0 0.1
2018-Jul-08 15:59N 49°10' W 122°58'0 0.1
2018-Jul-08 15:29N 49°10' W 122°58'0 0.0
2018-Jul-08 14:59N 49°10' W 122°58'0 0.0
2018-Jul-08 14:29N 49°10' W 122°58'0 0.0
2018-Jul-08 13:59N 49°10' W 122°58'0 0.0
2018-Jul-08 13:29N 49°10' W 122°58'0 0.0
2018-Jul-08 12:59N 49°10' W 122°58'0 0.0
2018-Jul-08 12:29N 49°10' W 122°58'0 0.0
2018-Jul-08 11:59N 49°10' W 122°58'0 0.0
2018-Jul-08 11:29N 49°10' W 122°58'0 0.0
2018-Jul-08 10:59N 49°10' W 122°58'0 0.1
2018-Jul-08 10:29N 49°10' W 122°58'0 0.0
2018-Jul-08 09:59N 49°10' W 122°58'0 0.1
2018-Jul-08 09:26N 49°10' W 122°58'0 0.0
2018-Jul-08 08:59N 49°10' W 122°58'0 0.1
2018-Jul-08 08:29N 49°10' W 122°58'0 0.1
2018-Jul-08 07:59N 49°10' W 122°58'0 0.1
2018-Jul-08 07:29N 49°10' W 122°58'0 0.1
2018-Jul-08 06:59N 49°10' W 122°58'0 0.0
2018-Jul-08 06:29N 49°10' W 122°58'0 0.0
2018-Jul-08 05:59N 49°10' W 122°58'0 0.0
2018-Jul-08 05:29N 49°10' W 122°58'0 0.1
2018-Jul-08 04:59N 49°10' W 122°58'0 0.1
2018-Jul-08 04:29N 49°10' W 122°58'0 0.0
2018-Jul-08 03:59N 49°10' W 122°58'0 0.1
2018-Jul-08 03:29N 49°10' W 122°58'0 0.1
2018-Jul-08 02:59N 49°10' W 122°58'0 0.0
2018-Jul-08 02:29N 49°10' W 122°58'0 0.0
2018-Jul-08 01:59N 49°10' W 122°58'0 0.0
2018-Jul-08 01:29N 49°10' W 122°58'0 0.0
2018-Jul-08 00:59N 49°10' W 122°58'0 0.1
2018-Jul-08 00:29N 49°10' W 122°58'0 0.0
2018-Jul-07 23:59N 49°10' W 122°58'0 0.1
2018-Jul-07 23:29N 49°10' W 122°58'0 0.0
2018-Jul-07 22:59N 49°10' W 122°58'0 0.0
2018-Jul-07 22:29N 49°10' W 122°58'0 0.0
2018-Jul-07 21:59N 49°10' W 122°58'0 0.0
2018-Jul-07 21:29N 49°10' W 122°58'0 0.0
2018-Jul-07 20:59N 49°10' W 122°58'0 0.0
2018-Jul-07 20:29N 49°10' W 122°58'0 0.0
2018-Jul-07 19:59N 49°10' W 122°58'0 0.1
2018-Jul-07 19:29N 49°10' W 122°58'0 0.1
2018-Jul-07 18:59N 49°10' W 122°58'0 0.1
2018-Jul-07 18:29N 49°10' W 122°58'0 0.1
2018-Jul-07 17:59N 49°10' W 122°58'0 0.0
2018-Jul-07 17:29N 49°10' W 122°58'0 0.1
2018-Jul-07 16:59N 49°10' W 122°58'0 0.1
2018-Jul-07 16:29N 49°10' W 122°58'0 0.1
2018-Jul-07 15:59N 49°10' W 122°58'0 0.1
2018-Jul-07 15:29N 49°10' W 122°58'0 0.0
2018-Jul-07 14:59N 49°10' W 122°58'0 0.0
2018-Jul-07 14:29N 49°10' W 122°58'0 0.0
2018-Jul-07 13:59N 49°10' W 122°58'0 0.0
2018-Jul-07 13:29N 49°10' W 122°58'0 0.0
2018-Jul-07 12:59N 49°10' W 122°58'0 0.0
2018-Jul-07 12:29N 49°10' W 122°58'0 0.0
2018-Jul-07 11:59N 49°10' W 122°58'0 0.1
2018-Jul-07 11:29N 49°10' W 122°58'0 0.1
2018-Jul-07 10:59N 49°10' W 122°58'0 0.0
2018-Jul-07 10:29N 49°10' W 122°58'0 0.0
2018-Jul-07 09:59N 49°10' W 122°58'0 0.1
2018-Jul-07 09:29N 49°10' W 122°58'0 0.1
2018-Jul-07 08:59N 49°10' W 122°58'0 0.1
2018-Jul-07 08:29N 49°10' W 122°58'0 0.0
2018-Jul-07 07:59N 49°10' W 122°58'0 0.1
2018-Jul-07 07:29N 49°10' W 122°58'0 0.0
2018-Jul-07 06:59N 49°10' W 122°58'0 0.0
2018-Jul-07 06:29N 49°10' W 122°58'0 0.0
2018-Jul-07 05:59N 49°10' W 122°58'0 0.0
2018-Jul-07 05:29N 49°10' W 122°58'0 0.1
2018-Jul-07 04:59N 49°10' W 122°58'0 0.1
2018-Jul-07 04:29N 49°10' W 122°58'0 0.0
2018-Jul-07 03:59N 49°10' W 122°58'0 0.0
2018-Jul-07 03:29N 49°10' W 122°58'0 0.0
2018-Jul-07 02:59N 49°10' W 122°58'0 0.0
2018-Jul-07 02:29N 49°10' W 122°58'0 0.1
2018-Jul-07 01:59N 49°10' W 122°58'0 0.0
2018-Jul-07 01:29N 49°10' W 122°58'0 0.1
2018-Jul-07 00:59N 49°10' W 122°58'0 0.0
2018-Jul-07 00:29N 49°10' W 122°58'0 0.0
2018-Jul-06 23:59N 49°10' W 122°58'0 0.0
2018-Jul-06 23:29N 49°10' W 122°58'0 0.0
2018-Jul-06 22:59N 49°10' W 122°58'0 0.0
2018-Jul-06 22:29N 49°10' W 122°58'0 0.0
2018-Jul-06 21:59N 49°10' W 122°58'0 0.0
2018-Jul-06 21:29N 49°10' W 122°58'0 0.0
2018-Jul-06 20:59N 49°10' W 122°58'0 0.1
2018-Jul-06 20:29N 49°10' W 122°58'0 0.1
2018-Jul-06 19:59N 49°10' W 122°58'0 0.0
2018-Jul-06 19:29N 49°10' W 122°58'0 0.0
2018-Jul-06 18:59N 49°10' W 122°58'0 0.1
2018-Jul-06 18:29N 49°10' W 122°58'0 0.1
2018-Jul-06 17:59N 49°10' W 122°58'0 0.0
2018-Jul-06 17:27N 49°10' W 122°58'0 0.0
2018-Jul-06 17:00N 49°10' W 122°58'0 0.0
2018-Jul-06 16:30N 49°10' W 122°58'0 0.1
2018-Jul-06 15:57N 49°10' W 122°58'0 0.1
2018-Jul-06 15:30N 49°10' W 122°58'0 0.0
2018-Jul-06 15:00N 49°10' W 122°58'0 0.1
2018-Jul-06 14:30N 49°10' W 122°58'0 0.1
2018-Jul-06 14:00N 49°10' W 122°58'0 0.0
2018-Jul-06 13:30N 49°10' W 122°58'0 0.0
2018-Jul-06 13:00N 49°10' W 122°58'0 0.0
2018-Jul-06 12:30N 49°10' W 122°58'0 0.1
2018-Jul-06 12:00N 49°10' W 122°58'0 0.0
2018-Jul-06 11:30N 49°10' W 122°58'0 0.1
2018-Jul-06 11:00N 49°10' W 122°58'0 0.0
2018-Jul-06 10:27N 49°10' W 122°58'0 0.1
2018-Jul-06 10:00N 49°10' W 122°58'0 0.1
2018-Jul-06 09:30N 49°10' W 122°58'0 0.1
2018-Jul-06 09:00N 49°10' W 122°58'0 0.1
2018-Jul-06 08:30N 49°10' W 122°58'0 0.0
2018-Jul-06 08:00N 49°10' W 122°58'0 0.0
2018-Jul-06 07:30N 49°10' W 122°58'0 0.0
2018-Jul-06 07:00N 49°10' W 122°58'0 0.0
2018-Jul-06 06:30N 49°10' W 122°58'0 0.0
2018-Jul-06 06:00N 49°10' W 122°58'0 0.0
2018-Jul-06 05:30N 49°10' W 122°58'0 0.1
2018-Jul-06 05:00N 49°10' W 122°58'0 0.0
2018-Jul-06 04:30N 49°10' W 122°58'0 0.1
2018-Jul-06 04:00N 49°10' W 122°58'0 0.0
2018-Jul-06 03:30N 49°10' W 122°58'0 0.0
2018-Jul-06 03:00N 49°10' W 122°58'0 0.0
2018-Jul-06 02:30N 49°10' W 122°58'0 0.0
2018-Jul-06 02:00N 49°10' W 122°58'0 0.0
2018-Jul-06 01:30N 49°10' W 122°58'0 0.0
2018-Jul-06 01:00N 49°10' W 122°58'0 0.0
2018-Jul-06 00:30N 49°10' W 122°58'0 0.0
2018-Jul-06 00:00N 49°10' W 122°58'0 0.0
2018-Jul-05 23:30N 49°10' W 122°58'0 0.0
2018-Jul-05 23:00N 49°10' W 122°58'0 0.0
2018-Jul-05 22:30N 49°10' W 122°58'0 0.1
2018-Jul-05 22:00N 49°10' W 122°58'0 0.1
2018-Jul-05 21:30N 49°10' W 122°58'0 0.0
2018-Jul-05 21:00N 49°10' W 122°58'0 0.0
2018-Jul-05 20:30N 49°10' W 122°58'0 0.0
2018-Jul-05 20:00N 49°10' W 122°58'0 0.0
2018-Jul-05 19:30N 49°10' W 122°58'0 0.1
2018-Jul-05 19:00N 49°10' W 122°58'0 0.0
2018-Jul-05 18:30N 49°10' W 122°58'0 0.1
2018-Jul-05 18:00N 49°10' W 122°58'  
Track history (hours):
 
Tides and Currents Weather Stations Pressure Air Temp Water Temp Dewpoint Dewpoint Depression Visibility Wind Speed Wind Dir Waves Ship Positions

Midnight Sun

Last reported at 2018-Jul-15 17:38 UTC. Time now 2018-Jul-16 04:45 UTC.
Position N 49°18' W 123°08'.

Length 25 m.

Type: Pleasure craft. MMSI: 316001152.

Date/timePositionNaut miles runAvg speedWind from/ knotsBaromVisibWave heightAir tempDewpointWater temp
2018-Jul-15 17:38N 49°18' W 123°08'0 0.0
2018-Jul-15 17:29N 49°18' W 123°08'0 0.0
2018-Jul-15 16:05N 49°18' W 123°08'0 0.0
2018-Jul-15 15:56N 49°18' W 123°08'0 0.0
2018-Jul-15 13:44N 49°18' W 123°08'0 0.0
2018-Jul-15 09:47N 49°18' W 123°08'0 0.0
2018-Jul-15 09:29N 49°18' W 123°08'0 0.0
2018-Jul-15 08:53N 49°18' W 123°08'0 0.0
2018-Jul-15 08:28N 49°18' W 123°08'0 0.0
2018-Jul-15 05:01N 49°18' W 123°08'0 0.0
2018-Jul-15 04:37N 49°18' W 123°08'0 0.0
2018-Jul-15 04:10N 49°18' W 123°08'1 3.4
2018-Jul-15 03:59N 49°18' W 123°07'4 7.4
2018-Jul-15 03:28N 49°18' W 123°01'1 3.0
2018-Jul-15 03:00N 49°18' W 122°59'4 7.5
2018-Jul-15 02:29N 49°20' W 122°54'2 3.4
2018-Jul-15 01:59N 49°22' W 122°53'4 8.9
2018-Jul-15 01:30N 49°18' W 122°57'3 6.0
2018-Jul-15 00:56N 49°18' W 123°02'3 6.7
2018-Jul-15 00:30N 49°18' W 123°06'1 0.2
2018-Jul-14 19:05N 49°18' W 123°08'0 5.3
2018-Jul-14 19:00N 49°18' W 123°07'14 5.2
2018-Jul-14 16:19N 49°06' W 123°20'3 9.7
2018-Jul-14 16:00N 49°07' W 123°15'611.3
2018-Jul-14 15:30N 49°07' W 123°07'510.3
2018-Jul-14 15:00N 49°09' W 123°00'2 3.2
2018-Jul-14 14:30N 49°10' W 122°58'0 0.0
2018-Jul-14 13:30N 49°10' W 122°58'0 0.1
2018-Jul-14 13:00N 49°10' W 122°58'0 0.1
2018-Jul-14 12:30N 49°10' W 122°58'0 0.0
2018-Jul-14 12:00N 49°10' W 122°58'0 0.1
2018-Jul-14 11:30N 49°10' W 122°58'0 0.0
2018-Jul-14 11:00N 49°10' W 122°58'0 0.0
2018-Jul-14 10:30N 49°10' W 122°58'0 0.0
2018-Jul-14 10:00N 49°10' W 122°58'0 0.0
2018-Jul-14 09:27N 49°10' W 122°58'0 0.0
2018-Jul-14 09:00N 49°10' W 122°58'0 0.0
2018-Jul-14 08:30N 49°10' W 122°58'0 0.0
2018-Jul-14 08:00N 49°10' W 122°58'0 0.0
2018-Jul-14 07:30N 49°10' W 122°58'0 0.0
2018-Jul-14 07:00N 49°10' W 122°58'0 0.0
2018-Jul-14 06:30N 49°10' W 122°58'0 0.0
2018-Jul-14 06:00N 49°10' W 122°58'0 0.0
2018-Jul-14 05:30N 49°10' W 122°58'0 0.0
2018-Jul-14 05:00N 49°10' W 122°58'0 0.0
2018-Jul-14 04:30N 49°10' W 122°58'0 0.1
2018-Jul-14 04:00N 49°10' W 122°58'0 0.1
2018-Jul-14 03:27N 49°10' W 122°58'0 0.0
2018-Jul-14 02:57N 49°10' W 122°58'0 0.0
2018-Jul-14 02:27N 49°10' W 122°58'0 0.0
2018-Jul-14 02:00N 49°10' W 122°58'0 0.1
2018-Jul-14 01:30N 49°10' W 122°58'0 0.1
2018-Jul-14 01:00N 49°10' W 122°58'0 0.1
2018-Jul-14 00:30N 49°10' W 122°58'0 0.1
2018-Jul-14 00:00N 49°10' W 122°58'0 0.1
2018-Jul-13 23:30N 49°10' W 122°58'0 0.1
2018-Jul-13 23:00N 49°10' W 122°58'0 0.0
2018-Jul-13 22:30N 49°10' W 122°58'0 0.0
2018-Jul-13 22:00N 49°10' W 122°58'0 0.0
2018-Jul-13 21:30N 49°10' W 122°58'0 0.0
2018-Jul-13 21:00N 49°10' W 122°58'0 0.0
2018-Jul-13 20:30N 49°10' W 122°58'0 0.0
2018-Jul-13 20:00N 49°10' W 122°58'0 0.0
2018-Jul-13 19:29N 49°10' W 122°58'0 0.0
2018-Jul-13 18:59N 49°10' W 122°58'0 0.1
2018-Jul-13 18:29N 49°10' W 122°58'0 0.0
2018-Jul-13 17:59N 49°10' W 122°58'0 0.0
2018-Jul-13 17:29N 49°10' W 122°58'0 0.1
2018-Jul-13 16:59N 49°10' W 122°58'0 0.0
2018-Jul-13 16:29N 49°10' W 122°58'0 0.0
2018-Jul-13 15:59N 49°10' W 122°58'0 0.1
2018-Jul-13 15:29N 49°10' W 122°58'0 0.1
2018-Jul-13 14:59N 49°10' W 122°58'0 0.1
2018-Jul-13 14:29N 49°10' W 122°58'0 0.0
2018-Jul-13 13:29N 49°10' W 122°58'0 0.0
2018-Jul-13 12:59N 49°10' W 122°58'0 0.0
2018-Jul-13 12:29N 49°10' W 122°58'0 0.0
2018-Jul-13 11:59N 49°10' W 122°58'0 0.0
2018-Jul-13 11:29N 49°10' W 122°58'0 0.0
2018-Jul-13 10:53N 49°10' W 122°58'0 0.0
2018-Jul-13 10:29N 49°10' W 122°58'0 0.1
2018-Jul-13 09:59N 49°10' W 122°58'0 0.1
2018-Jul-13 09:29N 49°10' W 122°58'0 0.1
2018-Jul-13 08:59N 49°10' W 122°58'0 0.1
2018-Jul-13 08:29N 49°10' W 122°58'0 0.0
2018-Jul-13 07:59N 49°10' W 122°58'0 0.0
2018-Jul-13 07:29N 49°10' W 122°58'0 0.0
2018-Jul-13 06:59N 49°10' W 122°58'0 0.0
2018-Jul-13 06:29N 49°10' W 122°58'0 0.1
2018-Jul-13 05:59N 49°10' W 122°58'0 0.1
2018-Jul-13 05:29N 49°10' W 122°58'0 0.0
2018-Jul-12 11:29N 49°10' W 122°58'0 0.0
2018-Jul-12 10:59N 49°10' W 122°58'0 0.1
2018-Jul-12 10:26N 49°10' W 122°58'0 0.1
2018-Jul-12 09:59N 49°10' W 122°58'0 0.0
2018-Jul-12 09:29N 49°10' W 122°58'0 0.0
2018-Jul-12 08:59N 49°10' W 122°58'0 0.0
2018-Jul-12 08:29N 49°10' W 122°58'0 0.0
2018-Jul-12 07:59N 49°10' W 122°58'0 0.1
2018-Jul-12 07:29N 49°10' W 122°58'0 0.1
2018-Jul-12 06:59N 49°10' W 122°58'0 0.0
2018-Jul-12 06:29N 49°10' W 122°58'0 0.0
2018-Jul-12 05:59N 49°10' W 122°58'0 0.0
2018-Jul-12 05:26N 49°10' W 122°58'0 0.1
2018-Jul-12 04:59N 49°10' W 122°58'0 0.1
2018-Jul-12 04:29N 49°10' W 122°58'0 0.1
2018-Jul-12 03:56N 49°10' W 122°58'0 0.1
2018-Jul-12 03:29N 49°10' W 122°58'0 0.1
2018-Jul-12 02:59N 49°10' W 122°58'0 0.1
2018-Jul-12 02:29N 49°10' W 122°58'0 0.0
2018-Jul-12 01:59N 49°10' W 122°58'0 0.0
2018-Jul-12 01:26N 49°10' W 122°58'0 0.1
2018-Jul-12 00:59N 49°10' W 122°58'0 0.1
2018-Jul-12 00:29N 49°10' W 122°58'0 0.0
2018-Jul-11 23:59N 49°10' W 122°58'0 0.1
2018-Jul-11 23:29N 49°10' W 122°58'0 0.1
2018-Jul-11 22:59N 49°10' W 122°58'0 0.0
2018-Jul-11 22:29N 49°10' W 122°58'0 0.0
2018-Jul-11 21:59N 49°10' W 122°58'0 0.0
2018-Jul-11 21:29N 49°10' W 122°58'0 0.0
2018-Jul-11 20:59N 49°10' W 122°58'0 0.0
2018-Jul-11 20:29N 49°10' W 122°58'0 0.0
2018-Jul-11 19:59N 49°10' W 122°58'0 0.0
2018-Jul-11 19:26N 49°10' W 122°58'0 0.0
2018-Jul-11 18:59N 49°10' W 122°58'0 0.0
2018-Jul-11 18:29N 49°10' W 122°58'0 0.0
2018-Jul-11 17:59N 49°10' W 122°58'0 0.0
2018-Jul-11 17:23N 49°10' W 122°58'0 0.0
2018-Jul-11 16:59N 49°10' W 122°58'0 0.0
2018-Jul-11 16:29N 49°10' W 122°58'0 0.0
2018-Jul-11 15:59N 49°10' W 122°58'0 0.1
2018-Jul-11 15:29N 49°10' W 122°58'0 0.1
2018-Jul-11 14:59N 49°10' W 122°58'0 0.0
2018-Jul-11 14:29N 49°10' W 122°58'0 0.0
2018-Jul-11 13:59N 49°10' W 122°58'0 0.1
2018-Jul-11 13:29N 49°10' W 122°58'0 0.1
2018-Jul-11 12:59N 49°10' W 122°58'0 0.0
2018-Jul-11 12:29N 49°10' W 122°58'0 0.0
2018-Jul-11 11:59N 49°10' W 122°58'0 0.0
2018-Jul-11 11:29N 49°10' W 122°58'0 0.1
2018-Jul-11 10:59N 49°10' W 122°58'0 0.1
2018-Jul-11 10:29N 49°10' W 122°58'0 0.0
2018-Jul-11 09:59N 49°10' W 122°58'0 0.0
2018-Jul-11 09:29N 49°10' W 122°58'0 0.1
2018-Jul-11 08:59N 49°10' W 122°58'0 0.0
2018-Jul-11 08:26N 49°10' W 122°58'0 0.1
2018-Jul-11 07:56N 49°10' W 122°58'0 0.0
2018-Jul-11 07:29N 49°10' W 122°58'0 0.1
2018-Jul-11 06:59N 49°10' W 122°58'0 0.1
2018-Jul-11 06:29N 49°10' W 122°58'0 0.0
2018-Jul-11 05:59N 49°10' W 122°58'0 0.1
2018-Jul-11 05:29N 49°10' W 122°58'0 0.1
2018-Jul-11 04:59N 49°10' W 122°58'0 0.0
2018-Jul-11 04:29N 49°10' W 122°58'0 0.1
2018-Jul-11 03:59N 49°10' W 122°58'0 0.1
2018-Jul-11 03:29N 49°10' W 122°58'0 0.1
2018-Jul-11 02:59N 49°10' W 122°58'0 0.1
2018-Jul-11 02:29N 49°10' W 122°58'0 0.0
2018-Jul-11 01:59N 49°10' W 122°58'0 0.1
2018-Jul-11 01:29N 49°10' W 122°58'0 0.0
2018-Jul-11 00:59N 49°10' W 122°58'0 0.1
2018-Jul-11 00:29N 49°10' W 122°58'0 0.0
2018-Jul-10 23:59N 49°10' W 122°58'0 0.0
2018-Jul-10 23:29N 49°10' W 122°58'0 0.1
2018-Jul-10 22:59N 49°10' W 122°58'0 0.1
2018-Jul-10 22:30N 49°10' W 122°58'0 0.0
2018-Jul-10 21:58N 49°10' W 122°58'0 0.0
2018-Jul-10 21:28N 49°10' W 122°58'0 0.0
2018-Jul-10 20:58N 49°10' W 122°58'0 0.0
2018-Jul-10 20:28N 49°10' W 122°58'0 0.0
2018-Jul-10 19:58N 49°10' W 122°58'0 0.0
2018-Jul-10 19:28N 49°10' W 122°58'0 0.1
2018-Jul-10 18:55N 49°10' W 122°58'0 0.1
2018-Jul-10 18:28N 49°10' W 122°58'0 0.0
2018-Jul-10 17:58N 49°10' W 122°58'0 0.0
2018-Jul-10 17:28N 49°10' W 122°58'0 0.0
2018-Jul-10 16:58N 49°10' W 122°58'0 0.0
2018-Jul-10 16:28N 49°10' W 122°58'0 0.1
2018-Jul-10 15:58N 49°10' W 122°58'0 0.1
2018-Jul-10 15:28N 49°10' W 122°58'0 0.1
2018-Jul-10 14:58N 49°10' W 122°58'0 0.1
2018-Jul-10 14:28N 49°10' W 122°58'0 0.0
2018-Jul-10 13:58N 49°10' W 122°58'0 0.0
2018-Jul-10 13:28N 49°10' W 122°58'0 0.0
2018-Jul-10 12:58N 49°10' W 122°58'0 0.0
2018-Jul-10 12:28N 49°10' W 122°58'0 0.0
2018-Jul-10 11:58N 49°10' W 122°58'0 0.0
2018-Jul-10 11:28N 49°10' W 122°58'0 0.0
2018-Jul-10 10:58N 49°10' W 122°58'0 0.0
2018-Jul-10 10:28N 49°10' W 122°58'0 0.0
2018-Jul-10 09:58N 49°10' W 122°58'0 0.0
2018-Jul-10 09:28N 49°10' W 122°58'0 0.1
2018-Jul-10 08:58N 49°10' W 122°58'0 0.1
2018-Jul-10 08:28N 49°10' W 122°58'0 0.1
2018-Jul-10 07:58N 49°10' W 122°58'0 0.1
2018-Jul-10 07:28N 49°10' W 122°58'0 0.0
2018-Jul-10 06:58N 49°10' W 122°58'0 0.0
2018-Jul-10 06:28N 49°10' W 122°58'0 0.1
2018-Jul-10 05:58N 49°10' W 122°58'0 0.1
2018-Jul-10 05:28N 49°10' W 122°58'0 0.0
2018-Jul-10 04:58N 49°10' W 122°58'0 0.0
2018-Jul-10 04:28N 49°10' W 122°58'0 0.0
2018-Jul-10 03:58N 49°10' W 122°58'0 0.1
2018-Jul-10 03:28N 49°10' W 122°58'0 0.0
2018-Jul-10 02:58N 49°10' W 122°58'0 0.1
2018-Jul-10 02:28N 49°10' W 122°58'0 0.0
2018-Jul-10 01:58N 49°10' W 122°58'0 0.0
2018-Jul-10 01:28N 49°10' W 122°58'0 0.0
2018-Jul-10 00:58N 49°10' W 122°58'0 0.0
2018-Jul-10 00:28N 49°10' W 122°58'0 0.1
2018-Jul-09 23:58N 49°10' W 122°58'0 0.1
2018-Jul-09 23:28N 49°10' W 122°58'0 0.1
2018-Jul-09 22:58N 49°10' W 122°58'0 0.1
2018-Jul-09 22:28N 49°10' W 122°58'0 0.0
2018-Jul-09 21:58N 49°10' W 122°58'0 0.0
2018-Jul-09 21:28N 49°10' W 122°58'0 0.0
2018-Jul-09 20:58N 49°10' W 122°58'0 0.1
2018-Jul-09 20:28N 49°10' W 122°58'0 0.1
2018-Jul-09 19:58N 49°10' W 122°58'0 0.1
2018-Jul-09 19:28N 49°10' W 122°58'0 0.1
2018-Jul-09 18:58N 49°10' W 122°58'0 0.1
2018-Jul-09 18:28N 49°10' W 122°58'0 0.0
2018-Jul-09 14:49N 49°10' W 122°58'0 0.1
2018-Jul-09 14:28N 49°10' W 122°58'0 0.1
2018-Jul-09 13:58N 49°10' W 122°58'0 0.0
2018-Jul-09 13:28N 49°10' W 122°58'0 0.1
2018-Jul-09 12:58N 49°10' W 122°58'0 0.1
2018-Jul-09 12:28N 49°10' W 122°58'0 0.0
2018-Jul-09 11:58N 49°10' W 122°58'0 0.0
2018-Jul-09 11:25N 49°10' W 122°58'0 0.1
2018-Jul-09 10:58N 49°10' W 122°58'0 0.1
2018-Jul-09 10:28N 49°10' W 122°58'0 0.0
2018-Jul-09 09:55N 49°10' W 122°58'0 0.0
2018-Jul-09 09:28N 49°10' W 122°58'0 0.1
2018-Jul-09 08:55N 49°10' W 122°58'0 0.1
2018-Jul-09 08:28N 49°10' W 122°58'0 0.1
2018-Jul-09 07:58N 49°10' W 122°58'0 0.1
2018-Jul-09 07:28N 49°10' W 122°58'0 0.0
2018-Jul-09 06:55N 49°10' W 122°58'0 0.0
2018-Jul-09 06:28N 49°10' W 122°58'0 0.1
2018-Jul-09 05:58N 49°10' W 122°58'0 0.1
2018-Jul-09 05:28N 49°10' W 122°58'0 0.0
2018-Jul-09 04:58N 49°10' W 122°58'0 0.0
2018-Jul-09 04:28N 49°10' W 122°58'0 0.1
2018-Jul-09 03:58N 49°10' W 122°58'0 0.1
2018-Jul-09 03:28N 49°10' W 122°58'0 0.1
2018-Jul-09 02:58N 49°10' W 122°58'0 0.1
2018-Jul-09 02:28N 49°10' W 122°58'0 0.0
2018-Jul-09 01:58N 49°10' W 122°58'0 0.1
2018-Jul-09 01:29N 49°10' W 122°58'0 0.1
2018-Jul-09 00:59N 49°10' W 122°58'0 0.1
2018-Jul-09 00:29N 49°10' W 122°58'0 0.0
2018-Jul-08 23:59N 49°10' W 122°58'0 0.1
2018-Jul-08 23:29N 49°10' W 122°58'0 0.0
2018-Jul-08 22:59N 49°10' W 122°58'0 0.0
2018-Jul-08 22:29N 49°10' W 122°58'0 0.0
2018-Jul-08 21:53N 49°10' W 122°58'0 0.0
2018-Jul-08 21:29N 49°10' W 122°58'0 0.0
2018-Jul-08 20:59N 49°10' W 122°58'0 0.1
2018-Jul-08 20:29N 49°10' W 122°58'0 0.1
2018-Jul-08 19:59N 49°10' W 122°58'0 0.0
2018-Jul-08 19:29N 49°10' W 122°58'0 0.1
2018-Jul-08 18:59N 49°10' W 122°58'0 0.1
2018-Jul-08 18:29N 49°10' W 122°58'0 0.1
2018-Jul-08 17:59N 49°10' W 122°58'0 0.1
2018-Jul-08 17:23N 49°10' W 122°58'0 0.0
2018-Jul-08 16:59N 49°10' W 122°58'0 0.0
2018-Jul-08 16:29N 49°10' W 122°58'0 0.1
2018-Jul-08 15:59N 49°10' W 122°58'0 0.1
2018-Jul-08 15:29N 49°10' W 122°58'0 0.0
2018-Jul-08 14:59N 49°10' W 122°58'0 0.0
2018-Jul-08 14:29N 49°10' W 122°58'0 0.0
2018-Jul-08 13:59N 49°10' W 122°58'0 0.0
2018-Jul-08 13:29N 49°10' W 122°58'0 0.0
2018-Jul-08 12:59N 49°10' W 122°58'0 0.0
2018-Jul-08 12:29N 49°10' W 122°58'0 0.0
2018-Jul-08 11:59N 49°10' W 122°58'0 0.0
2018-Jul-08 11:29N 49°10' W 122°58'0 0.0
2018-Jul-08 10:59N 49°10' W 122°58'0 0.1
2018-Jul-08 10:29N 49°10' W 122°58'0 0.0
2018-Jul-08 09:59N 49°10' W 122°58'0 0.1
2018-Jul-08 09:26N 49°10' W 122°58'0 0.0
2018-Jul-08 08:59N 49°10' W 122°58'0 0.1
2018-Jul-08 08:29N 49°10' W 122°58'0 0.1
2018-Jul-08 07:59N 49°10' W 122°58'0 0.1
2018-Jul-08 07:29N 49°10' W 122°58'0 0.1
2018-Jul-08 06:59N 49°10' W 122°58'0 0.0
2018-Jul-08 06:29N 49°10' W 122°58'0 0.0
2018-Jul-08 05:59N 49°10' W 122°58'0 0.0
2018-Jul-08 05:29N 49°10' W 122°58'0 0.1
2018-Jul-08 04:59N 49°10' W 122°58'0 0.1
2018-Jul-08 04:29N 49°10' W 122°58'0 0.0
2018-Jul-08 03:59N 49°10' W 122°58'0 0.1
2018-Jul-08 03:29N 49°10' W 122°58'0 0.1
2018-Jul-08 02:59N 49°10' W 122°58'0 0.0
2018-Jul-08 02:29N 49°10' W 122°58'0 0.0
2018-Jul-08 01:59N 49°10' W 122°58'0 0.0
2018-Jul-08 01:29N 49°10' W 122°58'0 0.0
2018-Jul-08 00:59N 49°10' W 122°58'0 0.1
2018-Jul-08 00:29N 49°10' W 122°58'0 0.0
2018-Jul-07 23:59N 49°10' W 122°58'0 0.1
2018-Jul-07 23:29N 49°10' W 122°58'0 0.0
2018-Jul-07 22:59N 49°10' W 122°58'0 0.0
2018-Jul-07 22:29N 49°10' W 122°58'0 0.0
2018-Jul-07 21:59N 49°10' W 122°58'0 0.0
2018-Jul-07 21:29N 49°10' W 122°58'0 0.0
2018-Jul-07 20:59N 49°10' W 122°58'0 0.0
2018-Jul-07 20:29N 49°10' W 122°58'0 0.0
2018-Jul-07 19:59N 49°10' W 122°58'0 0.1
2018-Jul-07 19:29N 49°10' W 122°58'0 0.1
2018-Jul-07 18:59N 49°10' W 122°58'0 0.1
2018-Jul-07 18:29N 49°10' W 122°58'0 0.1
2018-Jul-07 17:59N 49°10' W 122°58'0 0.0
2018-Jul-07 17:29N 49°10' W 122°58'0 0.1
2018-Jul-07 16:59N 49°10' W 122°58'0 0.1
2018-Jul-07 16:29N 49°10' W 122°58'0 0.1
2018-Jul-07 15:59N 49°10' W 122°58'0 0.1
2018-Jul-07 15:29N 49°10' W 122°58'0 0.0
2018-Jul-07 14:59N 49°10' W 122°58'0 0.0
2018-Jul-07 14:29N 49°10' W 122°58'0 0.0
2018-Jul-07 13:59N 49°10' W 122°58'0 0.0
2018-Jul-07 13:29N 49°10' W 122°58'0 0.0
2018-Jul-07 12:59N 49°10' W 122°58'0 0.0
2018-Jul-07 12:29N 49°10' W 122°58'0 0.0
2018-Jul-07 11:59N 49°10' W 122°58'0 0.1
2018-Jul-07 11:29N 49°10' W 122°58'0 0.1
2018-Jul-07 10:59N 49°10' W 122°58'0 0.0
2018-Jul-07 10:29N 49°10' W 122°58'0 0.0
2018-Jul-07 09:59N 49°10' W 122°58'0 0.1
2018-Jul-07 09:29N 49°10' W 122°58'0 0.1
2018-Jul-07 08:59N 49°10' W 122°58'0 0.1
2018-Jul-07 08:29N 49°10' W 122°58'0 0.0
2018-Jul-07 07:59N 49°10' W 122°58'0 0.1
2018-Jul-07 07:29N 49°10' W 122°58'0 0.0
2018-Jul-07 06:59N 49°10' W 122°58'0 0.0
2018-Jul-07 06:29N 49°10' W 122°58'0 0.0
2018-Jul-07 05:59N 49°10' W 122°58'0 0.0
2018-Jul-07 05:29N 49°10' W 122°58'0 0.1
2018-Jul-07 04:59N 49°10' W 122°58'0 0.1
2018-Jul-07 04:29N 49°10' W 122°58'0 0.0
2018-Jul-07 03:59N 49°10' W 122°58'0 0.0
2018-Jul-07 03:29N 49°10' W 122°58'0 0.0
2018-Jul-07 02:59N 49°10' W 122°58'0 0.0
2018-Jul-07 02:29N 49°10' W 122°58'0 0.1
2018-Jul-07 01:59N 49°10' W 122°58'0 0.0
2018-Jul-07 01:29N 49°10' W 122°58'0 0.1
2018-Jul-07 00:59N 49°10' W 122°58'0 0.0
2018-Jul-07 00:29N 49°10' W 122°58'0 0.0
2018-Jul-06 23:59N 49°10' W 122°58'0 0.0
2018-Jul-06 23:29N 49°10' W 122°58'0 0.0
2018-Jul-06 22:59N 49°10' W 122°58'0 0.0
2018-Jul-06 22:29N 49°10' W 122°58'0 0.0
2018-Jul-06 21:59N 49°10' W 122°58'0 0.0
2018-Jul-06 21:29N 49°10' W 122°58'0 0.0
2018-Jul-06 20:59N 49°10' W 122°58'0 0.1
2018-Jul-06 20:29N 49°10' W 122°58'0 0.1
2018-Jul-06 19:59N 49°10' W 122°58'0 0.0
2018-Jul-06 19:29N 49°10' W 122°58'0 0.0
2018-Jul-06 18:59N 49°10' W 122°58'0 0.1
2018-Jul-06 18:29N 49°10' W 122°58'0 0.1
2018-Jul-06 17:59N 49°10' W 122°58'0 0.0
2018-Jul-06 17:27N 49°10' W 122°58'0 0.0
2018-Jul-06 17:00N 49°10' W 122°58'0 0.0
2018-Jul-06 16:30N 49°10' W 122°58'0 0.1
2018-Jul-06 15:57N 49°10' W 122°58'0 0.1
2018-Jul-06 15:30N 49°10' W 122°58'0 0.0
2018-Jul-06 15:00N 49°10' W 122°58'0 0.1
2018-Jul-06 14:30N 49°10' W 122°58'0 0.1
2018-Jul-06 14:00N 49°10' W 122°58'0 0.0
2018-Jul-06 13:30N 49°10' W 122°58'0 0.0
2018-Jul-06 13:00N 49°10' W 122°58'0 0.0
2018-Jul-06 12:30N 49°10' W 122°58'0 0.1
2018-Jul-06 12:00N 49°10' W 122°58'0 0.0
2018-Jul-06 11:30N 49°10' W 122°58'0 0.1
2018-Jul-06 11:00N 49°10' W 122°58'0 0.0
2018-Jul-06 10:27N 49°10' W 122°58'0 0.1
2018-Jul-06 10:00N 49°10' W 122°58'0 0.1
2018-Jul-06 09:30N 49°10' W 122°58'0 0.1
2018-Jul-06 09:00N 49°10' W 122°58'0 0.1
2018-Jul-06 08:30N 49°10' W 122°58'0 0.0
2018-Jul-06 08:00N 49°10' W 122°58'0 0.0
2018-Jul-06 07:30N 49°10' W 122°58'0 0.0
2018-Jul-06 07:00N 49°10' W 122°58'0 0.0
2018-Jul-06 06:30N 49°10' W 122°58'0 0.0
2018-Jul-06 06:00N 49°10' W 122°58'0 0.0
2018-Jul-06 05:30N 49°10' W 122°58'0 0.1
2018-Jul-06 05:00N 49°10' W 122°58'0 0.0
2018-Jul-06 04:30N 49°10' W 122°58'0 0.1
2018-Jul-06 04:00N 49°10' W 122°58'0 0.0
2018-Jul-06 03:30N 49°10' W 122°58'0 0.0
2018-Jul-06 03:00N 49°10' W 122°58'0 0.0
2018-Jul-06 02:30N 49°10' W 122°58'0 0.0
2018-Jul-06 02:00N 49°10' W 122°58'0 0.0
2018-Jul-06 01:30N 49°10' W 122°58'0 0.0
2018-Jul-06 01:00N 49°10' W 122°58'0 0.0
2018-Jul-06 00:30N 49°10' W 122°58'0 0.0
2018-Jul-06 00:00N 49°10' W 122°58'0 0.0
2018-Jul-05 23:30N 49°10' W 122°58'0 0.0
2018-Jul-05 23:00N 49°10' W 122°58'0 0.0
2018-Jul-05 22:30N 49°10' W 122°58'0 0.1
2018-Jul-05 22:00N 49°10' W 122°58'0 0.1
2018-Jul-05 21:30N 49°10' W 122°58'0 0.0
2018-Jul-05 21:00N 49°10' W 122°58'0 0.0
2018-Jul-05 20:30N 49°10' W 122°58'0 0.0
2018-Jul-05 20:00N 49°10' W 122°58'0 0.0
2018-Jul-05 19:30N 49°10' W 122°58'0 0.1
2018-Jul-05 19:00N 49°10' W 122°58'0 0.0
2018-Jul-05 18:30N 49°10' W 122°58'0 0.1
2018-Jul-05 18:00N 49°10' W 122°58'  

Dump ship's entire track history